createdAt,value
2018-01-22T00:01:53.903Z,19.27
2018-01-22T00:06:37.256Z,18.23
2018-01-22T00:11:21.433Z,16.17
2018-01-22T00:16:04.817Z,15.70
2018-01-22T00:20:48.206Z,17.07
2018-01-22T00:25:31.529Z,18.20
2018-01-22T00:30:14.886Z,15.87
2018-01-22T00:34:58.214Z,15.83
2018-01-22T00:39:41.585Z,17.30
2018-01-22T00:44:24.919Z,17.37
2018-01-22T00:49:08.254Z,17.83
2018-01-22T00:53:51.624Z,17.40
2018-01-22T00:58:34.950Z,14.30
2018-01-22T01:03:18.281Z,15.73
2018-01-22T01:08:01.620Z,15.47
2018-01-22T01:12:44.962Z,15.70
2018-01-22T01:17:29.683Z,16.53
2018-01-22T01:22:17.019Z,15.23
2018-01-22T01:27:00.370Z,14.13
2018-01-22T01:31:43.705Z,12.30
2018-01-22T01:36:27.058Z,11.43
2018-01-22T01:41:10.365Z,13.17
2018-01-22T01:45:53.692Z,12.90
2018-01-22T01:50:37.047Z,14.67
2018-01-22T01:55:21.203Z,12.70
2018-01-22T02:00:05.369Z,12.50
2018-01-22T02:04:48.980Z,15.53
2018-01-22T02:09:33.343Z,15.23
2018-01-22T02:14:16.862Z,14.10
2018-01-22T02:19:00.264Z,13.23
2018-01-22T02:23:44.408Z,12.53
2018-01-22T02:28:27.770Z,12.50
2018-01-22T02:33:11.453Z,10.57
2018-01-22T02:37:54.787Z,10.47
2018-01-22T02:42:38.239Z,11.47
2018-01-22T02:47:21.582Z,11.40
2018-01-22T02:52:04.914Z,10.33
2018-01-22T02:56:48.258Z,11.87
2018-01-22T03:01:31.601Z,11.20
2018-01-22T03:06:15.307Z,12.43
2018-01-22T03:10:59.404Z,11.87
2018-01-22T03:15:42.747Z,11.57
2018-01-22T03:20:26.727Z,11.87
2018-01-22T03:25:10.054Z,12.40
2018-01-22T03:29:53.383Z,13.07
2018-01-22T03:34:37.006Z,12.00
2018-01-22T03:39:20.331Z,13.03
2018-01-22T03:44:03.642Z,14.53
2018-01-22T03:48:48.487Z,13.57
2018-01-22T03:53:32.187Z,14.23
2018-01-22T03:58:15.583Z,17.00
2018-01-22T04:02:58.922Z,16.37
2018-01-22T04:07:42.595Z,13.23
2018-01-22T04:12:25.945Z,14.43
2018-01-22T04:17:10.119Z,14.40
2018-01-22T04:21:54.211Z,15.40
2018-01-22T04:26:37.588Z,15.20
2018-01-22T04:31:20.902Z,14.87
2018-01-22T04:36:04.236Z,12.83
2018-01-22T04:40:47.555Z,12.50
2018-01-22T04:45:30.912Z,13.37
2018-01-22T04:50:14.242Z,12.97
2018-01-22T04:54:57.567Z,11.20
2018-01-22T04:59:40.968Z,11.40
2018-01-22T05:04:24.303Z,11.83
2018-01-22T05:09:07.621Z,12.33
2018-01-22T05:13:51.047Z,11.43
2018-01-22T05:18:34.349Z,11.07
2018-01-22T05:23:17.684Z,11.80
2018-01-22T05:28:01.777Z,11.93
2018-01-22T05:32:45.144Z,11.83
2018-01-22T05:37:28.462Z,11.80
2018-01-22T05:42:11.827Z,11.67
2018-01-22T05:46:55.107Z,11.07
2018-01-22T05:51:39.207Z,11.00
2018-01-22T05:56:22.522Z,10.13
2018-01-22T06:01:05.865Z,10.07
2018-01-22T06:05:49.185Z,10.07
2018-01-22T06:10:33.318Z,12.73
2018-01-22T06:15:16.602Z,12.10
2018-01-22T06:19:59.967Z,15.70
2018-01-22T06:24:43.304Z,14.40
2018-01-22T06:29:26.950Z,15.30
2018-01-22T06:34:11.101Z,11.37
2018-01-22T06:38:54.458Z,14.90
2018-01-22T06:43:37.773Z,13.00
2018-01-22T06:48:21.105Z,17.33
2018-01-22T06:53:05.307Z,21.60
2018-01-22T06:57:48.843Z,12.10
2018-01-22T07:02:32.182Z,11.30
2018-01-22T07:07:15.530Z,11.33
2018-01-22T07:11:59.202Z,10.93
2018-01-22T07:16:42.501Z,10.67
2018-01-22T07:21:25.838Z,12.17
2018-01-22T07:26:09.698Z,11.17
2018-01-22T07:30:53.119Z,11.97
2018-01-22T07:35:36.502Z,11.30
2018-01-22T07:40:19.815Z,10.00
2018-01-22T07:45:03.101Z,10.73
2018-01-22T07:49:46.517Z,10.97
2018-01-22T07:54:29.952Z,10.77
2018-01-22T07:59:13.313Z,10.17
2018-01-22T08:03:56.630Z,10.03
2018-01-22T08:08:39.965Z,10.50
2018-01-22T08:13:23.320Z,10.33
2018-01-22T08:18:07.582Z,10.23
2018-01-22T08:22:50.935Z,10.43
2018-01-22T08:27:34.374Z,9.97
2018-01-22T08:32:17.728Z,11.00
2018-01-22T08:37:01.113Z,10.73
2018-01-22T08:41:44.445Z,10.23
2018-01-22T08:46:27.818Z,9.37
2018-01-22T08:51:11.151Z,10.93
2018-01-22T08:55:54.511Z,11.20
2018-01-22T09:00:37.838Z,10.53
2018-01-22T09:05:21.188Z,10.27
2018-01-22T09:10:04.639Z,11.10
2018-01-22T09:14:47.978Z,12.37
2018-01-22T09:19:31.281Z,13.27
2018-01-22T09:24:14.702Z,13.50
2018-01-22T09:28:58.049Z,13.90
2018-01-22T09:33:42.152Z,15.83
2018-01-22T09:38:25.430Z,13.67
2018-01-22T09:43:08.770Z,15.07
2018-01-22T09:47:52.898Z,14.50
2018-01-22T09:52:36.257Z,14.43
2018-01-22T09:57:19.587Z,14.43
2018-01-22T10:02:02.942Z,14.10
2018-01-22T10:06:47.042Z,15.67
2018-01-22T10:11:30.354Z,13.50
2018-01-22T10:16:13.683Z,14.50
2018-01-22T10:20:57.005Z,14.10
2018-01-22T10:25:40.340Z,13.27
2018-01-22T10:30:23.676Z,14.70
2018-01-22T10:35:07.011Z,14.33
2018-01-22T10:39:50.426Z,13.87
2018-01-22T10:44:33.787Z,14.90
2018-01-22T10:49:17.204Z,14.90
2018-01-22T10:54:00.554Z,13.60
2018-01-22T10:58:43.938Z,13.90
2018-01-22T11:03:27.280Z,14.20
2018-01-22T11:08:10.592Z,13.20
2018-01-22T11:12:53.903Z,13.87
2018-01-22T11:17:37.244Z,12.27
2018-01-22T11:22:20.596Z,12.27
2018-01-22T11:27:03.886Z,13.17
2018-01-22T11:31:47.249Z,12.00
2018-01-22T11:36:31.388Z,12.40
2018-01-22T11:41:15.431Z,11.93
2018-01-22T11:45:58.781Z,11.07
2018-01-22T11:50:42.196Z,12.63
2018-01-22T11:55:25.515Z,12.53
2018-01-22T12:00:08.887Z,12.80
2018-01-22T12:04:52.224Z,12.10
2018-01-22T12:09:35.538Z,12.97
2018-01-22T12:14:18.927Z,13.83
2018-01-22T12:19:02.193Z,12.93
2018-01-22T12:23:45.559Z,12.80
2018-01-22T12:28:28.880Z,13.77
2018-01-22T12:33:12.988Z,12.83
2018-01-22T12:37:56.306Z,12.13
2018-01-22T12:42:39.613Z,13.07
2018-01-22T12:47:22.978Z,13.47
2018-01-22T12:52:06.328Z,13.70
2018-01-22T12:56:49.634Z,12.83
2018-01-22T13:01:32.992Z,13.40
2018-01-22T13:06:16.318Z,12.20
2018-01-22T13:10:59.643Z,12.63
2018-01-22T13:15:43.746Z,12.67
2018-01-22T13:20:27.099Z,13.57
2018-01-22T13:25:10.410Z,13.17
2018-01-22T13:29:53.744Z,13.77
2018-01-22T13:34:37.099Z,13.10
2018-01-22T13:39:20.441Z,14.00
2018-01-22T13:44:03.751Z,13.80
2018-01-22T13:48:47.095Z,15.40
2018-01-22T13:53:30.391Z,14.47
2018-01-22T13:58:13.746Z,14.80
2018-01-22T14:02:57.076Z,15.33
2018-01-22T14:07:40.424Z,14.20
2018-01-22T14:12:23.812Z,14.10
2018-01-22T14:17:07.145Z,16.50
2018-01-22T14:21:50.478Z,15.37
2018-01-22T14:26:33.826Z,14.37
2018-01-22T14:31:17.172Z,18.27
2018-01-22T14:36:00.753Z,15.27
2018-01-22T14:40:44.063Z,16.13
2018-01-22T14:45:27.400Z,16.10
2018-01-22T14:50:10.760Z,15.67
2018-01-22T14:54:54.073Z,15.93
2018-01-22T14:59:37.409Z,15.60
2018-01-22T15:04:20.750Z,14.93
2018-01-22T15:09:04.098Z,16.33
2018-01-22T15:13:47.450Z,16.93
2018-01-22T15:18:30.794Z,17.17
2018-01-22T15:23:14.156Z,17.63
2018-01-22T15:27:58.820Z,18.37
2018-01-22T15:32:42.148Z,19.13
2018-01-22T15:37:25.487Z,17.90
2018-01-22T15:42:08.940Z,19.00
2018-01-22T15:46:52.297Z,19.77
2018-01-22T15:51:35.639Z,18.23
2018-01-22T15:56:19.002Z,18.73
2018-01-22T16:01:03.057Z,18.73
2018-01-22T16:05:47.361Z,19.80
2018-01-22T16:10:30.697Z,17.73
2018-01-22T16:15:14.030Z,19.43
2018-01-22T16:19:57.403Z,19.43
2018-01-22T16:24:41.603Z,18.43
2018-01-22T16:29:28.886Z,19.23
2018-01-22T16:39:37.529Z,19.13
2018-01-22T16:44:20.912Z,19.83
2018-01-22T16:49:04.468Z,19.53
2018-01-22T16:53:47.921Z,17.73
2018-01-22T16:58:31.299Z,16.47
2018-01-22T17:03:14.764Z,17.60
2018-01-22T17:08:00.880Z,16.43
2018-01-22T17:12:45.275Z,17.60
2018-01-22T17:17:28.616Z,16.30
2018-01-22T17:22:12.327Z,18.20
2018-01-22T17:26:55.641Z,16.90
2018-01-22T17:31:39.070Z,18.00
2018-01-22T17:36:22.442Z,16.80
2018-01-22T17:41:05.790Z,16.97
2018-01-22T17:45:49.142Z,18.07
2018-01-22T17:50:32.490Z,16.13
2018-01-22T17:55:16.591Z,18.67
2018-01-22T17:59:59.941Z,15.47
2018-01-22T18:04:43.285Z,16.23
2018-01-22T18:09:26.651Z,16.60
2018-01-22T18:14:09.988Z,16.87
2018-01-22T18:18:53.351Z,15.77
2018-01-22T18:23:36.653Z,16.13
2018-01-22T18:28:19.972Z,16.47
2018-01-22T18:33:03.289Z,17.50
2018-01-22T18:37:47.419Z,17.47
2018-01-22T18:42:30.763Z,16.97
2018-01-22T18:47:14.370Z,17.27
2018-01-22T18:51:57.696Z,16.53
2018-01-22T18:56:41.071Z,16.37
2018-01-22T19:01:25.162Z,15.47
2018-01-22T19:06:08.479Z,14.97
2018-01-22T19:10:52.367Z,16.57
2018-01-22T19:15:36.489Z,15.70
2018-01-22T19:20:19.824Z,14.13
2018-01-22T19:25:04.020Z,14.33
2018-01-22T19:29:47.361Z,14.77
2018-01-22T19:34:31.456Z,14.03
2018-01-22T19:39:14.766Z,14.47
2018-01-22T19:43:58.883Z,12.10
2018-01-22T19:48:42.292Z,14.40
2018-01-22T19:53:27.784Z,16.03
2018-01-22T19:58:11.127Z,19.33
2018-01-22T20:02:54.454Z,21.07
2018-01-22T20:07:38.548Z,20.63
2018-01-22T20:12:21.904Z,20.03
2018-01-22T20:17:05.272Z,18.07
2018-01-22T20:21:48.630Z,14.23
2018-01-22T20:26:31.963Z,14.60
2018-01-22T20:31:16.025Z,14.47
2018-01-22T20:36:00.106Z,14.43
2018-01-22T20:40:43.495Z,14.43
2018-01-22T20:45:26.889Z,14.97
2018-01-22T20:50:10.315Z,12.27
2018-01-22T20:54:54.402Z,12.83
2018-01-22T20:59:37.797Z,12.93
2018-01-22T21:04:21.122Z,12.83
2018-01-22T21:09:04.458Z,13.60
2018-01-22T21:13:48.020Z,14.07
2018-01-22T21:18:31.356Z,13.67
2018-01-22T21:23:14.704Z,13.90
2018-01-22T21:27:58.848Z,13.57
2018-01-22T21:32:42.147Z,11.87
2018-01-22T21:37:25.476Z,12.13
2018-01-22T21:42:08.804Z,12.03
2018-01-22T21:46:52.158Z,11.07
2018-01-22T21:51:35.503Z,11.67
2018-01-22T21:56:18.810Z,12.87
2018-01-22T22:01:02.201Z,12.00
2018-01-22T22:05:45.698Z,12.17
2018-01-22T22:10:29.076Z,11.40
2018-01-22T22:15:12.512Z,11.00
2018-01-22T22:19:55.841Z,12.20
2018-01-22T22:24:39.189Z,14.00
2018-01-22T22:29:22.547Z,14.53
2018-01-22T22:34:05.926Z,14.03
2018-01-22T22:38:49.266Z,15.67
2018-01-22T22:43:32.625Z,17.07
2018-01-22T22:48:15.974Z,18.43
2018-01-22T22:53:00.174Z,16.23
2018-01-22T22:57:43.561Z,19.20
2018-01-22T23:02:27.672Z,18.63
2018-01-22T23:07:11.041Z,19.17
2018-01-22T23:11:54.527Z,17.50
2018-01-22T23:16:37.846Z,16.83
2018-01-22T23:21:21.635Z,17.57
2018-01-22T23:26:05.089Z,17.50
2018-01-22T23:30:48.423Z,16.87
2018-01-22T23:35:31.814Z,16.83
2018-01-22T23:40:15.164Z,16.27
2018-01-22T23:44:59.262Z,15.60
2018-01-22T23:49:42.668Z,12.80
2018-01-22T23:54:26.798Z,10.70
2018-01-22T23:59:10.190Z,8.47
